createdAt,value
2024-01-22T00:00:01.419Z,101286.44
2024-01-22T00:02:29.923Z,101283.66
2024-01-22T00:04:57.885Z,101281.30
2024-01-22T00:07:25.757Z,101283.52
2024-01-22T00:09:54.056Z,101285.33
2024-01-22T00:12:22.042Z,101289.60
2024-01-22T00:14:50.028Z,101291.27
2024-01-22T00:17:18.321Z,101286.95
2024-01-22T00:19:46.371Z,101276.44
2024-01-22T00:22:14.471Z,101274.59
2024-01-22T00:24:42.329Z,101265.21
2024-01-22T00:27:10.259Z,101262.05
2024-01-22T00:29:38.458Z,101262.23
2024-01-22T00:32:08.173Z,101257.09
2024-01-22T00:34:36.343Z,101254.03
2024-01-22T00:37:04.490Z,101254.39
2024-01-22T00:39:32.773Z,101255.94
2024-01-22T00:42:01.094Z,101255.65
2024-01-22T00:44:29.096Z,101259.44
2024-01-22T00:46:57.302Z,101257.73
2024-01-22T00:49:25.350Z,101249.89
2024-01-22T00:51:53.375Z,101247.02
2024-01-22T00:54:21.334Z,101234.56
2024-01-22T00:56:49.692Z,101234.85
2024-01-22T00:59:17.510Z,101242.60
2024-01-22T01:01:45.371Z,101247.08
2024-01-22T01:04:14.392Z,101243.08
2024-01-22T01:06:42.473Z,101244.05
2024-01-22T01:09:10.468Z,101240.23
2024-01-22T01:11:38.700Z,101231.92
2024-01-22T01:14:06.615Z,101231.70
2024-01-22T01:16:34.539Z,101226.41
2024-01-22T01:19:02.564Z,101226.77
2024-01-22T01:21:30.590Z,101223.98
2024-01-22T01:23:58.466Z,101223.09
2024-01-22T01:26:29.458Z,101220.89
2024-01-22T01:28:57.529Z,101213.56
2024-01-22T01:31:29.912Z,101205.46
2024-01-22T01:33:58.251Z,101204.19
2024-01-22T01:36:26.363Z,101208.96
2024-01-22T01:38:54.236Z,101210.14
2024-01-22T01:41:22.307Z,101206.52
2024-01-22T01:43:50.159Z,101205.19
2024-01-22T01:46:21.391Z,101201.70
2024-01-22T01:48:57.642Z,101193.56
2024-01-22T01:51:25.920Z,101188.83
2024-01-22T01:53:57.532Z,101187.45
2024-01-22T01:56:25.504Z,101188.92
2024-01-22T01:58:55.694Z,101184.07
2024-01-22T02:01:23.821Z,101181.20
2024-01-22T02:03:54.285Z,101169.61
2024-01-22T02:06:22.547Z,101165.75
2024-01-22T02:08:51.691Z,101165.24
2024-01-22T02:11:23.667Z,101159.48
2024-01-22T02:13:51.722Z,101155.71
2024-01-22T02:16:19.914Z,101153.92
2024-01-22T02:18:48.941Z,101147.42
2024-01-22T02:21:17.064Z,101140.39
2024-01-22T02:23:44.996Z,101137.02
2024-01-22T02:26:12.880Z,101132.97
2024-01-22T02:28:40.787Z,101128.89
2024-01-22T02:31:09.938Z,101125.19
2024-01-22T02:33:37.925Z,101122.54
2024-01-22T02:36:06.321Z,101118.59
2024-01-22T02:38:34.186Z,101122.55
2024-01-22T02:41:02.084Z,101117.86
2024-01-22T02:43:29.986Z,101109.25
2024-01-22T02:45:58.083Z,101109.23
2024-01-22T02:48:26.175Z,101104.40
2024-01-22T02:50:54.255Z,101098.80
2024-01-22T02:53:22.215Z,101090.27
2024-01-22T02:55:50.142Z,101085.74
2024-01-22T02:58:18.194Z,101081.48
2024-01-22T03:00:46.051Z,101080.05
2024-01-22T03:03:14.053Z,101089.67
2024-01-22T03:05:42.970Z,101098.52
2024-01-22T03:08:11.011Z,101100.55
2024-01-22T03:10:39.137Z,101095.52
2024-01-22T03:13:06.960Z,101088.56
2024-01-22T03:15:34.867Z,101087.05
2024-01-22T03:18:02.869Z,101079.90
2024-01-22T03:20:30.739Z,101074.77
2024-01-22T03:23:01.642Z,101058.95
2024-01-22T03:25:29.540Z,101054.52
2024-01-22T03:27:57.492Z,101047.69
2024-01-22T03:30:25.953Z,101041.85
2024-01-22T03:32:53.938Z,101029.65
2024-01-22T03:35:21.957Z,101024.90
2024-01-22T03:37:49.768Z,101015.09
2024-01-22T03:40:17.776Z,101012.45
2024-01-22T03:42:45.668Z,100999.34
2024-01-22T03:45:15.704Z,100998.45
2024-01-22T03:47:43.754Z,100996.82
2024-01-22T03:50:14.611Z,100993.05
2024-01-22T03:52:42.985Z,100994.38
2024-01-22T03:55:13.857Z,100984.85
2024-01-22T03:57:41.809Z,100974.86
2024-01-22T04:00:10.237Z,100958.98
2024-01-22T04:02:38.275Z,100948.09
2024-01-22T04:05:09.348Z,100935.48
2024-01-22T04:07:37.365Z,100929.69
2024-01-22T04:10:08.729Z,100927.27
2024-01-22T04:12:36.747Z,100926.02
2024-01-22T04:15:05.298Z,100926.66
2024-01-22T04:17:33.444Z,100929.45
2024-01-22T04:20:01.485Z,100930.55
2024-01-22T04:22:32.385Z,100927.69
2024-01-22T04:25:00.223Z,100926.27
2024-01-22T04:27:28.121Z,100927.05
2024-01-22T04:29:56.053Z,100917.73
2024-01-22T04:32:23.968Z,100908.05
2024-01-22T04:34:52.187Z,100895.05
2024-01-22T04:37:22.399Z,100888.80
2024-01-22T04:39:50.312Z,100881.90
2024-01-22T04:42:21.751Z,100875.50
2024-01-22T04:44:49.793Z,100874.41
2024-01-22T04:47:17.718Z,100869.83
2024-01-22T04:49:45.667Z,100862.66
2024-01-22T04:52:14.141Z,100851.86
2024-01-22T04:54:42.435Z,100851.41
2024-01-22T04:57:10.376Z,100857.67
2024-01-22T04:59:38.886Z,100858.55
2024-01-22T05:02:07.013Z,100847.39
2024-01-22T05:04:35.104Z,100831.56
2024-01-22T05:07:03.429Z,100826.39
2024-01-22T05:09:31.312Z,100828.72
2024-01-22T05:12:00.954Z,100828.04
2024-01-22T05:14:29.200Z,100820.48
2024-01-22T05:16:57.098Z,100820.55
2024-01-22T05:19:25.071Z,100824.38
2024-01-22T05:21:52.962Z,100820.31
2024-01-22T05:24:21.730Z,100808.14
2024-01-22T05:26:49.751Z,100796.06
2024-01-22T05:29:17.854Z,100798.20
2024-01-22T05:31:45.841Z,100793.00
2024-01-22T05:34:14.444Z,100792.45
2024-01-22T05:36:44.239Z,100791.53
2024-01-22T05:42:21.658Z,100780.64
2024-01-22T05:44:49.804Z,100778.63
2024-01-22T05:47:17.683Z,100782.39
2024-01-22T05:49:46.143Z,100778.66
2024-01-22T05:52:15.456Z,100777.48
2024-01-22T05:54:43.407Z,100783.73
2024-01-22T05:57:11.409Z,100770.93
2024-01-22T05:59:41.102Z,100768.69
2024-01-22T06:02:09.044Z,100773.34
2024-01-22T06:04:37.001Z,100780.62
2024-01-22T06:07:06.194Z,100785.02
2024-01-22T06:09:34.322Z,100788.72
2024-01-22T06:12:02.525Z,100789.73
2024-01-22T06:14:30.843Z,100790.27
2024-01-22T06:16:58.670Z,100792.96
2024-01-22T06:19:26.504Z,100804.77
2024-01-22T06:21:54.583Z,100806.88
2024-01-22T06:24:22.592Z,100812.42
2024-01-22T06:26:50.653Z,100808.13
2024-01-22T06:29:18.623Z,100807.75
2024-01-22T06:31:46.644Z,100805.42
2024-01-22T06:34:14.676Z,100795.35
2024-01-22T06:36:42.862Z,100792.01
2024-01-22T06:39:10.793Z,100794.02
2024-01-22T06:41:39.204Z,100795.12
2024-01-22T06:44:08.039Z,100788.07
2024-01-22T06:46:35.875Z,100786.29
2024-01-22T06:49:09.032Z,100775.35
2024-01-22T06:51:46.211Z,100771.10
2024-01-22T06:54:15.934Z,100767.52
2024-01-22T06:56:44.093Z,100765.91
2024-01-22T06:59:12.098Z,100765.72
2024-01-22T07:01:40.088Z,100757.34
2024-01-22T07:04:09.398Z,100756.36
2024-01-22T07:06:37.390Z,100758.52
2024-01-22T07:09:07.684Z,100763.08
2024-01-22T07:11:36.018Z,100761.23
2024-01-22T07:14:05.385Z,100755.52
2024-01-22T07:16:33.512Z,100748.37
2024-01-22T07:19:01.822Z,100747.90
2024-01-22T07:21:29.871Z,100736.98
2024-01-22T07:23:57.953Z,100745.42
2024-01-22T07:26:25.913Z,100745.32
2024-01-22T07:28:53.781Z,100735.30
2024-01-22T07:31:24.309Z,100732.45
2024-01-22T07:33:52.460Z,100729.55
2024-01-22T07:36:20.610Z,100722.80
2024-01-22T07:38:49.297Z,100714.86
2024-01-22T07:41:20.170Z,100708.71
2024-01-22T07:43:48.714Z,100705.36
2024-01-22T07:46:16.926Z,100702.09
2024-01-22T07:48:45.094Z,100704.86
2024-01-22T07:51:14.926Z,100704.85
2024-01-22T07:53:42.988Z,100700.27
2024-01-22T07:56:11.065Z,100697.05
2024-01-22T07:58:40.729Z,100701.15
2024-01-22T08:01:09.106Z,100699.89
2024-01-22T08:03:37.152Z,100688.20
2024-01-22T08:06:05.703Z,100688.78
2024-01-22T08:08:33.640Z,100673.77
2024-01-22T08:11:01.616Z,100671.56
2024-01-22T08:13:29.525Z,100668.66
2024-01-22T08:15:57.321Z,100673.09
2024-01-22T08:18:25.404Z,100677.12
2024-01-22T08:20:54.338Z,100663.08
2024-01-22T08:23:22.367Z,100656.11
2024-01-22T08:25:50.316Z,100643.32
2024-01-22T08:28:18.211Z,100650.89
2024-01-22T08:30:46.033Z,100648.73
2024-01-22T08:33:14.023Z,100640.34
2024-01-22T08:35:42.232Z,100633.36
2024-01-22T08:38:10.188Z,100621.92
2024-01-22T08:40:38.150Z,100616.17
2024-01-22T08:43:06.909Z,100599.11
2024-01-22T08:45:35.585Z,100590.73
2024-01-22T08:48:03.674Z,100583.05
2024-01-22T08:50:31.753Z,100574.10
2024-01-22T08:53:00.168Z,100576.25
2024-01-22T08:55:28.391Z,100582.81
2024-01-22T08:57:56.521Z,100593.80
2024-01-22T09:00:25.094Z,100577.51
2024-01-22T09:02:53.706Z,100566.33
2024-01-22T09:05:22.270Z,100556.96
2024-01-22T09:07:50.449Z,100577.52
2024-01-22T09:10:19.511Z,100596.90
2024-01-22T09:12:50.094Z,100588.45
2024-01-22T09:15:21.744Z,100573.96
2024-01-22T09:17:50.599Z,100584.62
2024-01-22T09:20:19.305Z,100603.40
2024-01-22T09:22:47.563Z,100581.92
2024-01-22T09:25:15.948Z,100568.75
2024-01-22T09:27:43.890Z,100580.31
2024-01-22T09:30:12.120Z,100596.84
2024-01-22T09:32:40.477Z,100582.80
2024-01-22T09:35:08.842Z,100565.08
2024-01-22T09:37:36.682Z,100585.58
2024-01-22T09:40:10.507Z,100585.81
2024-01-22T09:42:42.408Z,100558.89
2024-01-22T09:45:11.109Z,100549.25
2024-01-22T09:47:39.237Z,100526.48
2024-01-22T09:50:08.419Z,100515.36
2024-01-22T09:52:36.636Z,100524.74
2024-01-22T09:55:05.349Z,100509.80
2024-01-22T09:57:33.620Z,100513.03
2024-01-22T10:00:02.410Z,100490.27
2024-01-22T10:02:30.567Z,100475.52
2024-01-22T10:04:58.775Z,100481.11
2024-01-22T10:07:26.632Z,100474.66
2024-01-22T10:09:54.478Z,100479.88
2024-01-22T10:12:22.512Z,100483.85
2024-01-22T10:14:50.610Z,100479.95
2024-01-22T10:17:22.817Z,100483.65
2024-01-22T10:19:51.240Z,100508.89
2024-01-22T10:22:21.100Z,100529.17
2024-01-22T10:25:02.546Z,100521.77
2024-01-22T10:27:30.677Z,100508.86
2024-01-22T10:30:13.094Z,100502.03
2024-01-22T10:32:41.520Z,100485.88
2024-01-22T10:35:23.880Z,100500.25
2024-01-22T10:38:13.090Z,100529.98
2024-01-22T10:40:41.720Z,100560.64
2024-01-22T10:43:22.285Z,100539.41
2024-01-22T10:45:52.557Z,100506.69
2024-01-22T10:48:37.698Z,100485.46
2024-01-22T10:51:12.645Z,100461.58
2024-01-22T10:53:43.148Z,100424.67
2024-01-22T10:56:26.947Z,100385.56
2024-01-22T10:58:58.377Z,100370.52
2024-01-22T11:01:28.472Z,100390.70
2024-01-22T11:03:58.559Z,100430.70
2024-01-22T11:06:29.310Z,100460.41
2024-01-22T11:08:59.031Z,100465.80
2024-01-22T11:11:29.149Z,100469.79
2024-01-22T11:14:00.622Z,100450.67
2024-01-22T11:16:29.253Z,100450.56
2024-01-22T11:18:59.534Z,100453.84
2024-01-22T11:21:35.837Z,100457.64
2024-01-22T11:24:17.958Z,100455.63
2024-01-22T11:26:53.132Z,100462.17
2024-01-22T11:29:27.562Z,100451.54
2024-01-22T11:31:57.797Z,100449.70
2024-01-22T11:34:42.776Z,100453.04
2024-01-22T11:37:13.768Z,100445.05
2024-01-22T11:39:48.485Z,100440.35
2024-01-22T11:42:18.297Z,100443.48
2024-01-22T11:44:50.191Z,100445.44
2024-01-22T11:47:21.677Z,100433.30
2024-01-22T11:49:50.143Z,100426.84
2024-01-22T11:52:22.994Z,100425.09
2024-01-22T11:54:58.746Z,100419.85
2024-01-22T11:57:33.026Z,100407.21
2024-01-22T12:00:06.964Z,100395.37
2024-01-22T12:02:35.458Z,100390.64
2024-01-22T12:05:07.426Z,100393.23
2024-01-22T12:07:37.382Z,100388.23
2024-01-22T12:10:07.232Z,100370.10
2024-01-22T12:12:36.799Z,100355.22
2024-01-22T12:15:06.583Z,100364.77
2024-01-22T12:17:43.724Z,100354.16
2024-01-22T12:20:13.627Z,100340.39
2024-01-22T12:22:43.150Z,100324.89
2024-01-22T12:25:13.792Z,100324.95
2024-01-22T12:27:41.956Z,100335.30
2024-01-22T12:30:15.643Z,100328.60
2024-01-22T12:32:55.301Z,100315.70
2024-01-22T12:35:26.902Z,100305.81
2024-01-22T12:37:55.984Z,100282.27
2024-01-22T12:40:25.153Z,100266.04
2024-01-22T12:43:00.741Z,100260.30
2024-01-22T12:45:29.479Z,100259.56
2024-01-22T12:47:58.821Z,100257.38
2024-01-22T12:50:27.273Z,100252.79
2024-01-22T12:52:55.518Z,100254.83
2024-01-22T12:55:23.751Z,100252.77
2024-01-22T12:57:51.804Z,100241.59
2024-01-22T13:00:20.115Z,100226.58
2024-01-22T13:02:48.396Z,100235.60
2024-01-22T13:05:16.682Z,100236.73
2024-01-22T13:07:44.620Z,100257.11
2024-01-22T13:10:12.697Z,100262.83
2024-01-22T13:12:40.692Z,100273.79
2024-01-22T13:15:11.650Z,100271.27
2024-01-22T13:17:40.141Z,100275.23
2024-01-22T13:20:09.180Z,100268.21
2024-01-22T13:22:37.782Z,100265.52
2024-01-22T13:25:06.242Z,100263.50
2024-01-22T13:27:37.265Z,100264.53
2024-01-22T13:30:06.345Z,100266.35
2024-01-22T13:32:34.562Z,100260.42
2024-01-22T13:35:03.024Z,100267.66
2024-01-22T13:37:31.046Z,100269.52
2024-01-22T13:39:59.161Z,100266.02
2024-01-22T13:42:27.435Z,100264.20
2024-01-22T13:44:55.535Z,100256.09
2024-01-22T13:47:33.059Z,100256.35
2024-01-22T13:50:07.152Z,100251.44
2024-01-22T13:52:36.259Z,100246.20
2024-01-22T13:55:06.207Z,100247.86
2024-01-22T13:57:37.273Z,100246.13
2024-01-22T14:00:06.249Z,100237.31
2024-01-22T14:02:34.348Z,100236.75
2024-01-22T14:05:02.905Z,100237.44
2024-01-22T14:07:31.554Z,100232.38
2024-01-22T14:09:59.438Z,100230.66
2024-01-22T14:12:27.836Z,100228.62
2024-01-22T14:14:56.103Z,100233.89
2024-01-22T14:17:25.368Z,100233.06
2024-01-22T14:19:54.211Z,100238.77
2024-01-22T14:22:24.839Z,100243.13
2024-01-22T14:24:52.701Z,100239.65
2024-01-22T14:27:20.909Z,100234.54
2024-01-22T14:29:49.737Z,100226.91
2024-01-22T14:32:17.856Z,100217.48
2024-01-22T14:34:46.124Z,100209.17
2024-01-22T14:37:16.066Z,100189.89
2024-01-22T14:39:44.983Z,100202.05
2024-01-22T14:42:13.488Z,100197.98
2024-01-22T14:44:41.775Z,100185.20
2024-01-22T14:47:09.721Z,100173.37
2024-01-22T14:49:37.864Z,100173.73
2024-01-22T14:52:06.382Z,100185.71
2024-01-22T14:54:34.216Z,100185.75
2024-01-22T14:57:02.150Z,100190.05
2024-01-22T14:59:32.311Z,100186.02
2024-01-22T15:02:00.249Z,100172.14
2024-01-22T15:04:28.463Z,100156.67
2024-01-22T15:06:57.216Z,100161.89
2024-01-22T15:09:25.273Z,100188.26
2024-01-22T15:11:53.381Z,100179.81
2024-01-22T15:14:23.535Z,100168.41
2024-01-22T15:16:51.452Z,100173.18
2024-01-22T15:19:19.876Z,100175.25
2024-01-22T15:21:48.255Z,100179.17
2024-01-22T15:24:18.451Z,100172.41
2024-01-22T15:26:47.997Z,100168.98
2024-01-22T15:29:16.408Z,100168.84
2024-01-22T15:31:46.407Z,100171.05
2024-01-22T15:34:15.987Z,100173.97
2024-01-22T15:36:44.095Z,100168.95
2024-01-22T15:39:12.839Z,100170.46
2024-01-22T15:41:40.843Z,100172.04
2024-01-22T15:44:10.444Z,100165.15
2024-01-22T15:46:38.839Z,100159.06
2024-01-22T15:49:08.184Z,100154.84
2024-01-22T15:51:36.710Z,100148.92
2024-01-22T15:54:04.622Z,100149.36
2024-01-22T15:56:32.678Z,100146.35
2024-01-22T15:59:00.746Z,100131.79
2024-01-22T16:01:28.905Z,100122.09
2024-01-22T16:03:57.152Z,100119.73
2024-01-22T16:06:25.761Z,100120.77
2024-01-22T16:08:54.743Z,100128.33
2024-01-22T16:11:24.444Z,100129.29
2024-01-22T16:13:53.103Z,100124.60
2024-01-22T16:16:21.141Z,100122.77
2024-01-22T16:18:49.335Z,100117.64
2024-01-22T16:21:18.664Z,100121.98
2024-01-22T16:23:46.911Z,100129.20
2024-01-22T16:26:16.408Z,100128.70
2024-01-22T16:28:44.634Z,100129.66
2024-01-22T16:31:12.614Z,100134.34
2024-01-22T16:33:40.906Z,100129.89
2024-01-22T16:36:10.981Z,100135.16
2024-01-22T16:38:41.272Z,100140.55
2024-01-22T16:41:09.316Z,100143.27
2024-01-22T16:43:37.246Z,100144.81
2024-01-22T16:46:05.297Z,100151.16
2024-01-22T16:48:33.479Z,100150.94
2024-01-22T16:51:01.615Z,100143.14
2024-01-22T16:53:29.725Z,100134.48
2024-01-22T16:55:57.898Z,100135.02
2024-01-22T16:58:25.817Z,100134.46
2024-01-22T17:00:53.782Z,100134.19
2024-01-22T17:03:21.952Z,100128.92
2024-01-22T17:05:49.984Z,100124.67
2024-01-22T17:08:18.125Z,100122.77
2024-01-22T17:10:46.236Z,100133.11
2024-01-22T17:13:15.216Z,100129.20
2024-01-22T17:15:43.232Z,100131.65
2024-01-22T17:18:11.382Z,100128.73
2024-01-22T17:20:39.914Z,100127.30
2024-01-22T17:23:09.836Z,100130.54
2024-01-22T17:25:38.449Z,100141.22
2024-01-22T17:28:06.876Z,100138.92
2024-01-22T17:30:35.015Z,100141.38
2024-01-22T17:33:03.641Z,100144.47
2024-01-22T17:35:32.245Z,100148.38
2024-01-22T17:38:00.602Z,100145.87
2024-01-22T17:40:29.476Z,100144.58
2024-01-22T17:42:57.792Z,100146.35
2024-01-22T17:45:25.972Z,100145.76
2024-01-22T17:47:54.300Z,100151.16
2024-01-22T17:50:22.694Z,100151.52
2024-01-22T17:52:51.557Z,100146.23
2024-01-22T17:55:20.169Z,100141.83
2024-01-22T17:57:49.814Z,100143.10
2024-01-22T18:00:18.461Z,100138.17
2024-01-22T18:02:46.849Z,100136.26
2024-01-22T18:05:15.186Z,100133.68
2024-01-22T18:07:43.200Z,100128.64
2024-01-22T18:10:15.119Z,100130.64
2024-01-22T18:12:44.442Z,100129.98
2024-01-22T18:15:12.645Z,100125.40
2024-01-22T18:17:40.823Z,100123.38
2024-01-22T18:20:09.620Z,100125.60
2024-01-22T18:22:40.562Z,100123.77
2024-01-22T18:25:09.034Z,100127.84
2024-01-22T18:27:39.359Z,100131.31
2024-01-22T18:30:09.524Z,100128.90
2024-01-22T18:32:37.782Z,100136.27
2024-01-22T18:35:07.860Z,100139.23
2024-01-22T18:37:35.972Z,100140.78
2024-01-22T18:40:05.214Z,100138.20
2024-01-22T18:42:51.805Z,100130.96
2024-01-22T18:45:20.051Z,100128.25
2024-01-22T18:47:48.081Z,100132.42
2024-01-22T18:50:16.326Z,100128.77
2024-01-22T18:52:46.415Z,100130.02
2024-01-22T18:55:15.054Z,100123.23
2024-01-22T18:57:43.105Z,100115.98
2024-01-22T19:00:11.946Z,100119.26
2024-01-22T19:02:40.609Z,100118.49
2024-01-22T19:05:09.716Z,100116.02
2024-01-22T19:07:38.202Z,100117.29
2024-01-22T19:10:06.445Z,100122.73
2024-01-22T19:12:34.530Z,100118.48
2024-01-22T19:15:02.869Z,100126.54
2024-01-22T19:17:31.024Z,100129.83
2024-01-22T19:19:59.888Z,100123.90
2024-01-22T19:22:28.171Z,100127.48
2024-01-22T19:24:56.114Z,100124.61
2024-01-22T19:27:24.270Z,100132.29
2024-01-22T19:29:52.413Z,100139.09
2024-01-22T19:32:20.475Z,100143.59
2024-01-22T19:34:48.604Z,100151.63
2024-01-22T19:37:16.626Z,100158.29
2024-01-22T19:39:44.828Z,100165.59
2024-01-22T19:42:13.026Z,100159.34
2024-01-22T19:44:41.175Z,100158.92
2024-01-22T19:47:10.522Z,100155.10
2024-01-22T19:49:38.848Z,100152.09
2024-01-22T19:52:07.070Z,100147.15
2024-01-22T19:54:35.255Z,100147.48
2024-01-22T19:57:05.112Z,100153.70
2024-01-22T19:59:33.805Z,100155.94
2024-01-22T20:02:01.845Z,100164.55
2024-01-22T20:04:30.178Z,100171.83
2024-01-22T20:06:58.515Z,100177.83
2024-01-22T20:09:26.798Z,100171.25
2024-01-22T20:11:55.664Z,100178.80
2024-01-22T20:14:23.903Z,100182.00
2024-01-22T20:16:51.947Z,100186.57
2024-01-22T20:19:21.611Z,100191.55
2024-01-22T20:21:49.712Z,100188.77
2024-01-22T20:24:19.291Z,100197.02
2024-01-22T20:26:47.787Z,100197.46
2024-01-22T20:29:15.949Z,100202.65
2024-01-22T20:31:43.873Z,100206.52
2024-01-22T20:34:12.694Z,100220.05
2024-01-22T20:36:41.061Z,100217.92
2024-01-22T20:39:10.278Z,100216.20
2024-01-22T20:41:41.376Z,100219.16
2024-01-22T20:44:09.892Z,100222.02
2024-01-22T20:46:38.065Z,100227.48
2024-01-22T20:49:06.778Z,100233.25
2024-01-22T20:51:35.725Z,100229.92
2024-01-22T20:54:04.234Z,100226.09
2024-01-22T20:56:32.315Z,100231.70
2024-01-22T20:59:01.715Z,100232.08
2024-01-22T21:01:30.064Z,100232.92
2024-01-22T21:03:58.321Z,100234.36
2024-01-22T21:06:26.983Z,100240.55
2024-01-22T21:08:55.162Z,100244.84
2024-01-22T21:11:23.295Z,100245.43
2024-01-22T21:13:51.456Z,100245.61
2024-01-22T21:16:21.584Z,100246.09
2024-01-22T21:18:50.246Z,100249.11
2024-01-22T21:21:18.708Z,100260.52
2024-01-22T21:23:48.014Z,100264.39
2024-01-22T21:26:18.084Z,100258.90
2024-01-22T21:28:48.126Z,100270.00
2024-01-22T21:31:16.357Z,100282.14
2024-01-22T21:33:44.686Z,100285.64
2024-01-22T21:36:13.299Z,100284.75
2024-01-22T21:38:41.300Z,100288.93
2024-01-22T21:41:09.529Z,100296.92
2024-01-22T21:43:37.716Z,100302.67
2024-01-22T21:46:07.954Z,100298.02
2024-01-22T21:48:36.774Z,100296.88
2024-01-22T21:51:06.322Z,100301.25
2024-01-22T21:53:34.456Z,100296.98
2024-01-22T21:56:03.248Z,100311.88
2024-01-22T21:58:32.887Z,100306.86
2024-01-22T22:01:00.946Z,100312.70
2024-01-22T22:03:31.850Z,100314.70
2024-01-22T22:06:01.611Z,100317.77
2024-01-22T22:08:30.148Z,100314.94
2024-01-22T22:10:58.431Z,100319.32
2024-01-22T22:13:27.177Z,100322.55
2024-01-22T22:15:55.948Z,100317.66
2024-01-22T22:18:25.114Z,100320.59
2024-01-22T22:20:53.561Z,100325.87
2024-01-22T22:23:22.020Z,100329.54
2024-01-22T22:25:49.891Z,100329.14
2024-01-22T22:28:17.885Z,100329.02
2024-01-22T22:30:45.934Z,100331.65
2024-01-22T22:33:19.369Z,100324.42
2024-01-22T22:35:47.346Z,100323.90
2024-01-22T22:38:15.245Z,100315.80
2024-01-22T22:40:43.450Z,100314.30
2024-01-22T22:43:12.252Z,100316.92
2024-01-22T22:45:40.275Z,100318.76
2024-01-22T22:48:10.423Z,100316.83
2024-01-22T22:50:38.717Z,100314.16
2024-01-22T22:53:06.703Z,100326.80
2024-01-22T22:55:34.626Z,100323.18
2024-01-22T22:58:02.560Z,100326.20
2024-01-22T23:00:30.560Z,100333.31
2024-01-22T23:02:59.772Z,100334.08
2024-01-22T23:05:30.579Z,100337.20
2024-01-22T23:08:00.707Z,100323.48
2024-01-22T23:10:28.683Z,100318.23
2024-01-22T23:12:56.648Z,100329.87
2024-01-22T23:15:24.675Z,100331.56
2024-01-22T23:17:52.841Z,100335.37
2024-01-22T23:20:20.762Z,100334.94
2024-01-22T23:22:48.986Z,100336.58
2024-01-22T23:25:17.068Z,100345.20
2024-01-22T23:27:45.044Z,100346.14
2024-01-22T23:30:13.577Z,100350.50
2024-01-22T23:32:41.768Z,100355.13
2024-01-22T23:35:09.917Z,100354.72
2024-01-22T23:37:37.856Z,100355.08
2024-01-22T23:40:06.547Z,100365.08
2024-01-22T23:42:34.486Z,100369.88
2024-01-22T23:45:05.534Z,100375.78
2024-01-22T23:47:33.979Z,100379.16
2024-01-22T23:50:02.119Z,100373.63
2024-01-22T23:52:30.128Z,100373.23
2024-01-22T23:54:58.215Z,100380.70
2024-01-22T23:57:26.190Z,100385.34
2024-01-22T23:59:55.773Z,100385.88
